Time;durP1;ratioP1;P1;durP2;ratioP2;P2;SDS_P1;SDS_P2;PMS_P1;PMS_P2;Temp;Humidity;BMP_temperature;BMP_pressure;BME280_temperature;BME280_humidity;BME280_pressure;Samples;Min_cycle;Max_cycle;Signal;HPM_P1;HPM_P2
2021/03/12 00:00:32;;;;;;;3.50;1.52;;;8.30;99.90;;;;;;5055510;28;20109;-71
2021/03/12 00:02:58;;;;;;;5.47;1.48;;;8.40;99.90;;;;;;5063172;28;20032;-71
2021/03/12 00:05:23;;;;;;;4.97;1.88;;;8.40;99.90;;;;;;5063119;28;20527;-71
2021/03/12 00:07:49;;;;;;;3.70;1.13;;;8.40;99.90;;;;;;5073905;28;20040;-71
2021/03/12 00:10:23;;;;;;;4.32;1.88;;;8.40;99.90;;;;;;5070223;28;20036;-71
2021/03/12 00:12:49;;;;;;;3.75;1.42;;;8.50;99.90;;;;;;5054765;28;20480;-70
2021/03/12 00:15:17;;;;;;;4.97;1.73;;;8.50;99.90;;;;;;5051479;28;20031;-70
2021/03/12 00:17:44;;;;;;;2.72;1.50;;;8.50;99.90;;;;;;5071370;28;20025;-70
2021/03/12 00:20:15;;;;;;;5.95;1.60;;;8.50;99.90;;;;;;5052338;28;20107;-71
2021/03/12 00:22:41;;;;;;;3.72;1.90;;;8.50;99.90;;;;;;5054142;28;20029;-71
2021/03/12 00:25:10;;;;;;;4.60;1.70;;;8.50;99.90;;;;;;5051414;28;20034;-70
2021/03/12 00:27:35;;;;;;;5.18;1.70;;;8.50;99.90;;;;;;5051555;28;20036;-71
2021/03/12 00:30:06;;;;;;;2.60;1.40;;;8.50;99.90;;;;;;5053373;28;20029;-70
2021/03/12 00:32:32;;;;;;;4.72;1.67;;;8.60;99.90;;;;;;5065224;28;20029;-71
2021/03/12 00:34:57;;;;;;;4.90;1.60;;;8.50;99.90;;;;;;5057561;28;20502;-70
2021/03/12 00:37:23;;;;;;;3.13;1.55;;;8.50;99.90;;;;;;5050818;28;20078;-70
2021/03/12 00:39:48;;;;;;;6.82;2.00;;;8.40;99.90;;;;;;5055253;28;20507;-71
2021/03/12 00:42:14;;;;;;;7.05;1.52;;;8.40;99.90;;;;;;5061690;28;20036;-71
2021/03/12 00:44:40;;;;;;;3.13;1.60;;;8.40;99.90;;;;;;5056673;28;20042;-70
2021/03/12 00:47:05;;;;;;;2.42;1.58;;;8.30;99.90;;;;;;5060093;28;20036;-70
2021/03/12 00:49:31;;;;;;;8.02;1.65;;;8.40;99.90;;;;;;5055911;28;20446;-71
2021/03/12 00:51:56;;;;;;;3.45;1.98;;;8.40;99.90;;;;;;5060988;28;20031;-71
2021/03/12 00:54:22;;;;;;;5.85;1.70;;;8.30;99.90;;;;;;5070037;28;20023;-71
2021/03/12 00:56:47;;;;;;;6.60;1.42;;;8.30;99.90;;;;;;5060140;28;20021;-70
2021/03/12 00:59:13;;;;;;;4.78;1.50;;;8.30;99.90;;;;;;5054940;28;20020;-71
2021/03/12 01:01:38;;;;;;;5.95;1.83;;;8.30;99.90;;;;;;5058049;28;20657;-71
2021/03/12 01:04:04;;;;;;;2.63;1.20;;;8.30;99.90;;;;;;5056470;28;20032;-71
2021/03/12 01:06:30;;;;;;;4.05;1.63;;;8.30;99.90;;;;;;5061309;28;20029;-71
2021/03/12 01:08:55;;;;;;;3.10;1.85;;;8.30;99.90;;;;;;5071932;28;20052;-71
2021/03/12 01:11:21;;;;;;;4.28;1.52;;;8.30;99.90;;;;;;5055883;28;20032;-71
2021/03/12 01:13:46;;;;;;;5.85;1.63;;;8.30;99.90;;;;;;5051058;28;20025;-71
2021/03/12 01:16:12;;;;;;;3.53;1.92;;;8.30;99.90;;;;;;5054369;28;20030;-70
2021/03/12 01:18:37;;;;;;;3.97;1.45;;;8.30;99.90;;;;;;5055748;28;20040;-71
2021/03/12 01:21:03;;;;;;;4.07;1.77;;;8.30;99.90;;;;;;5065023;28;20102;-70
2021/03/12 01:23:29;;;;;;;3.83;1.60;;;8.20;99.90;;;;;;5066065;28;20039;-70
2021/03/12 01:25:55;;;;;;;5.78;1.40;;;8.20;99.90;;;;;;5059610;28;20033;-71
2021/03/12 01:28:20;;;;;;;2.88;1.63;;;8.20;99.90;;;;;;5067125;28;20029;-71
2021/03/12 01:30:48;;;;;;;2.67;1.50;;;8.10;99.90;;;;;;5049999;28;20122;-71
2021/03/12 01:33:14;;;;;;;3.83;1.80;;;8.10;99.90;;;;;;5051534;28;20028;-71
2021/03/12 01:35:40;;;;;;;4.43;1.75;;;8.10;99.90;;;;;;5055616;28;20025;-71
2021/03/12 01:38:06;;;;;;;6.00;1.33;;;8.10;99.90;;;;;;5055864;28;20044;-71
2021/03/12 01:40:34;;;;;;;4.57;1.40;;;8.10;99.90;;;;;;5052507;28;20075;-70
2021/03/12 01:43:01;;;;;;;4.47;1.20;;;8.10;99.90;;;;;;5069392;28;20028;-71
2021/03/12 01:45:49;;;;;;;6.63;1.30;;;8.10;99.90;;;;;;5053913;28;20035;-71
2021/03/12 01:48:18;;;;;;;3.03;1.05;;;8.10;99.90;;;;;;5067574;28;20049;-71
2021/03/12 01:50:50;;;;;;;2.70;1.27;;;8.10;99.90;;;;;;5064623;28;20025;-71
2021/03/12 01:53:18;;;;;;;3.10;1.10;;;8.10;99.90;;;;;;5049846;28;20035;-71
2021/03/12 01:55:44;;;;;;;3.15;1.10;;;8.00;99.90;;;;;;5058589;28;20025;-71
2021/03/12 01:58:10;;;;;;;3.80;1.60;;;8.00;99.90;;;;;;5050485;28;20466;-71
2021/03/12 02:00:36;;;;;;;4.97;1.52;;;8.10;99.90;;;;;;5063372;28;20422;-71
2021/03/12 02:03:05;;;;;;;3.33;1.65;;;8.10;99.90;;;;;;5064094;28;20035;-71
2021/03/12 02:05:33;;;;;;;2.33;1.38;;;8.10;99.90;;;;;;5050751;28;20131;-71
2021/03/12 02:07:59;;;;;;;5.70;1.40;;;8.10;99.90;;;;;;5050445;28;20029;-71
2021/03/12 02:10:27;;;;;;;4.30;1.42;;;8.10;99.90;;;;;;5065470;28;20056;-71
2021/03/12 02:13:21;;;;;;;2.70;1.30;;;8.10;99.90;;;;;;5059709;28;20035;-71
2021/03/12 02:16:12;;;;;;;3.88;1.50;;;8.00;99.90;;;;;;5065813;28;20047;-71
2021/03/12 02:18:43;;;;;;;2.28;1.58;;;8.00;99.90;;;;;;5050804;28;20036;-71
2021/03/12 02:21:23;;;;;;;3.28;0.95;;;7.90;99.90;;;;;;5054415;28;20040;-70
2021/03/12 02:24:02;;;;;;;2.53;1.40;;;7.90;99.90;;;;;;5069258;28;20064;-71
2021/03/12 02:26:38;;;;;;;5.20;1.42;;;7.90;99.90;;;;;;5063296;28;20483;-71
2021/03/12 02:29:07;;;;;;;4.47;1.27;;;7.80;99.90;;;;;;5052368;28;20036;-71
2021/03/12 02:31:39;;;;;;;5.53;1.23;;;7.80;99.90;;;;;;5049659;28;20361;-71
2021/03/12 02:34:20;;;;;;;2.92;1.40;;;7.80;99.90;;;;;;5047860;28;20049;-70
2021/03/12 02:36:49;;;;;;;1.63;1.10;;;7.80;99.90;;;;;;5050394;28;20025;-71
2021/03/12 02:39:22;;;;;;;4.32;1.45;;;7.70;99.90;;;;;;5049649;28;20021;-71
2021/03/12 02:41:50;;;;;;;2.30;1.20;;;7.60;99.90;;;;;;5060973;28;20021;-71
2021/03/12 02:44:17;;;;;;;2.30;1.45;;;7.60;99.90;;;;;;5068974;28;20785;-71
2021/03/12 02:46:44;;;;;;;4.97;1.20;;;7.50;99.90;;;;;;5061874;28;20104;-71
2021/03/12 02:49:11;;;;;;;2.33;1.42;;;7.40;99.90;;;;;;5065746;28;20041;-71
2021/03/12 02:51:37;;;;;;;3.45;1.40;;;7.40;99.90;;;;;;5052916;28;20112;-71
2021/03/12 02:54:03;;;;;;;3.53;1.75;;;7.40;99.90;;;;;;5049059;28;20116;-71
2021/03/12 02:56:29;;;;;;;3.83;1.45;;;7.40;99.90;;;;;;5064928;28;20114;-71
2021/03/12 02:58:55;;;;;;;5.60;1.50;;;7.30;99.90;;;;;;5053723;28;20246;-71
2021/03/12 03:01:22;;;;;;;5.22;1.63;;;7.30;99.90;;;;;;5058612;28;20119;-71
2021/03/12 03:03:49;;;;;;;4.63;1.63;;;7.30;99.90;;;;;;5052579;28;20047;-71
2021/03/12 03:06:15;;;;;;;3.78;1.50;;;7.20;99.90;;;;;;5048616;28;20029;-71
2021/03/12 03:08:43;;;;;;;3.22;1.40;;;7.20;99.90;;;;;;5049191;28;20037;-71
2021/03/12 03:11:11;;;;;;;3.22;1.60;;;7.30;99.90;;;;;;5057701;28;20434;-71
2021/03/12 03:13:38;;;;;;;3.40;1.27;;;7.30;99.90;;;;;;5064114;28;20403;-71
2021/03/12 03:16:13;;;;;;;4.00;1.50;;;7.20;99.90;;;;;;5068115;28;20024;-71
2021/03/12 03:18:39;;;;;;;2.30;1.40;;;7.20;99.90;;;;;;5066979;28;20037;-71
2021/03/12 03:21:06;;;;;;;3.28;1.70;;;7.20;99.90;;;;;;5052838;28;20025;-71
2021/03/12 03:23:39;;;;;;;2.15;1.20;;;7.20;99.90;;;;;;5063065;28;20024;-71
2021/03/12 03:26:06;;;;;;;3.45;1.27;;;7.20;99.90;;;;;;5050473;28;20032;-70
2021/03/12 03:28:32;;;;;;;3.45;1.33;;;7.10;99.90;;;;;;5049939;28;20533;-71
2021/03/12 03:31:00;;;;;;;2.63;1.10;;;7.10;99.90;;;;;;5054578;28;20033;-71
2021/03/12 03:33:26;;;;;;;1.73;1.20;;;7.10;99.90;;;;;;5056245;28;20029;-71
2021/03/12 03:35:52;;;;;;;3.90;1.10;;;7.10;99.90;;;;;;5034086;28;20487;-71
2021/03/12 03:38:20;;;;;;;2.13;1.17;;;7.10;99.90;;;;;;5052894;28;20025;-71
2021/03/12 03:40:46;;;;;;;2.65;1.20;;;7.10;99.90;;;;;;5053217;28;20082;-71
2021/03/12 03:43:13;;;;;;;1.55;0.82;;;7.10;99.90;;;;;;5059823;28;20029;-71
2021/03/12 03:45:40;;;;;;;3.38;1.00;;;7.00;99.90;;;;;;5048926;28;20017;-70
2021/03/12 03:48:07;;;;;;;4.20;0.90;;;7.10;99.90;;;;;;5048128;28;20049;-71
2021/03/12 03:50:36;;;;;;;2.15;0.85;;;7.10;99.90;;;;;;5048383;28;20566;-71
2021/03/12 03:53:04;;;;;;;2.00;0.88;;;7.00;99.90;;;;;;5055382;28;20028;-71
2021/03/12 03:55:30;;;;;;;6.57;0.80;;;7.10;99.90;;;;;;5058155;28;20109;-71
2021/03/12 03:57:59;;;;;;;2.92;0.98;;;7.00;99.90;;;;;;5060449;28;20071;-71
2021/03/12 04:00:24;;;;;;;5.45;1.08;;;7.10;99.90;;;;;;5050103;28;20552;-71
2021/03/12 04:02:50;;;;;;;2.92;0.98;;;7.10;99.90;;;;;;5053121;28;20036;-71
2021/03/12 04:05:17;;;;;;;2.88;0.60;;;7.00;99.90;;;;;;5050684;28;20040;-70
2021/03/12 04:07:44;;;;;;;1.90;0.70;;;7.00;99.90;;;;;;5070640;28;20403;-70
2021/03/12 04:10:12;;;;;;;1.05;0.57;;;7.00;99.90;;;;;;5050239;28;20483;-71
2021/03/12 04:12:38;;;;;;;2.90;0.95;;;7.00;99.90;;;;;;5052418;28;20218;-71
2021/03/12 04:15:07;;;;;;;1.52;0.75;;;7.00;99.90;;;;;;5055499;28;20129;-70
2021/03/12 04:17:37;;;;;;;4.63;0.93;;;7.00;99.90;;;;;;5050370;28;20032;-70
2021/03/12 04:20:05;;;;;;;0.50;0.50;;;7.00;99.90;;;;;;5049815;28;20028;-70
2021/03/12 04:22:31;;;;;;;1.35;0.90;;;7.00;99.90;;;;;;5047937;28;20033;-71
2021/03/12 04:24:59;;;;;;;3.78;0.70;;;7.00;99.90;;;;;;5049326;28;20137;-71
2021/03/12 04:27:25;;;;;;;1.55;0.88;;;7.00;99.90;;;;;;5052917;28;20044;-71
2021/03/12 04:29:51;;;;;;;0.80;0.60;;;7.00;99.90;;;;;;5052543;28;20036;-71
2021/03/12 04:32:17;;;;;;;2.85;1.27;;;7.00;99.90;;;;;;5059936;28;20028;-71
2021/03/12 04:34:42;;;;;;;2.97;1.00;;;6.90;99.90;;;;;;5067035;28;20032;-70
2021/03/12 04:37:08;;;;;;;0.60;0.60;;;6.90;99.90;;;;;;5066295;28;20111;-70
2021/03/12 04:39:34;;;;;;;1.75;0.80;;;6.90;99.90;;;;;;5053364;28;20033;-70
2021/03/12 04:42:00;;;;;;;8.80;1.10;;;6.90;99.90;;;;;;5057663;28;20036;-70
2021/03/12 04:44:26;;;;;;;4.28;0.80;;;6.90;99.90;;;;;;5070483;28;20025;-71
2021/03/12 04:46:53;;;;;;;2.10;0.95;;;6.80;99.90;;;;;;5056226;28;20035;-71
2021/03/12 04:49:19;;;;;;;2.25;1.00;;;6.80;99.90;;;;;;5051522;28;20048;-71
2021/03/12 04:51:45;;;;;;;1.55;0.82;;;6.80;99.90;;;;;;5070399;28;20547;-70
2021/03/12 04:54:16;;;;;;;2.72;0.77;;;6.80;99.90;;;;;;5063368;28;20059;-71
2021/03/12 04:56:42;;;;;;;2.03;1.08;;;6.90;99.90;;;;;;5065760;28;20028;-70
2021/03/12 04:59:09;;;;;;;6.70;1.30;;;6.90;99.90;;;;;;5051247;28;20025;-71
2021/03/12 05:01:36;;;;;;;2.78;1.20;;;6.80;99.90;;;;;;5059676;28;20055;-70
2021/03/12 05:04:06;;;;;;;2.67;0.90;;;6.90;99.90;;;;;;5051286;28;20509;-71
2021/03/12 05:06:32;;;;;;;3.50;1.13;;;6.90;99.90;;;;;;5054805;28;20044;-71
2021/03/12 05:08:59;;;;;;;4.07;1.10;;;6.80;99.90;;;;;;5051407;28;20032;-71
2021/03/12 05:11:27;;;;;;;3.92;1.33;;;6.80;99.90;;;;;;5050292;28;20379;-71
2021/03/12 05:13:53;;;;;;;2.28;1.10;;;6.80;99.90;;;;;;5052381;28;20051;-70
2021/03/12 05:16:19;;;;;;;2.97;1.33;;;6.80;99.90;;;;;;5051257;28;20543;-71
2021/03/12 05:18:45;;;;;;;4.47;1.40;;;6.80;99.90;;;;;;5054978;28;20486;-71
2021/03/12 05:21:12;;;;;;;2.72;1.20;;;6.80;99.90;;;;;;5064651;28;20058;-70
2021/03/12 05:23:40;;;;;;;2.97;1.60;;;6.80;99.90;;;;;;5068540;28;20043;-70
2021/03/12 05:26:06;;;;;;;5.30;1.20;;;6.70;99.90;;;;;;5054822;28;20143;-71
2021/03/12 05:28:32;;;;;;;3.60;1.48;;;6.70;99.90;;;;;;5050658;28;20450;-71
2021/03/12 05:30:57;;;;;;;2.22;1.40;;;6.70;99.90;;;;;;5052914;28;20547;-70
2021/03/12 05:33:23;;;;;;;4.13;1.55;;;6.70;99.90;;;;;;5056724;28;20024;-70
2021/03/12 05:35:48;;;;;;;3.15;1.67;;;6.80;99.90;;;;;;5059885;28;20024;-70
2021/03/12 05:38:14;;;;;;;1.98;1.20;;;6.60;99.90;;;;;;5070283;28;20020;-70
2021/03/12 05:40:40;;;;;;;3.85;1.85;;;6.60;99.90;;;;;;5055324;28;20021;-71
2021/03/12 05:43:09;;;;;;;4.68;1.90;;;6.60;99.90;;;;;;5061701;28;20407;-70
2021/03/12 05:45:35;;;;;;;6.03;2.03;;;6.60;99.90;;;;;;5054645;28;20025;-70
2021/03/12 05:48:01;;;;;;;2.95;1.58;;;6.50;99.90;;;;;;5059680;28;20408;-70
2021/03/12 05:50:27;;;;;;;3.78;1.52;;;6.60;99.90;;;;;;5049888;28;20036;-72
2021/03/12 05:52:53;;;;;;;6.28;1.88;;;6.60;99.90;;;;;;5061028;28;20032;-71
2021/03/12 05:55:19;;;;;;;3.47;2.13;;;6.50;99.90;;;;;;5059916;28;20021;-71
2021/03/12 05:57:46;;;;;;;5.43;1.95;;;6.50;99.90;;;;;;5053242;28;20027;-73
2021/03/12 06:00:13;;;;;;;4.97;2.17;;;6.60;99.90;;;;;;5049257;28;20037;-71
2021/03/12 06:02:39;;;;;;;7.70;2.42;;;6.60;99.90;;;;;;5057886;28;20615;-72
2021/03/12 06:05:09;;;;;;;4.97;2.30;;;6.60;99.90;;;;;;5053187;28;20120;-71
2021/03/12 06:07:38;;;;;;;6.78;2.20;;;6.50;99.90;;;;;;5055234;28;20024;-71
2021/03/12 06:10:06;;;;;;;7.47;2.47;;;6.50;99.90;;;;;;5057301;28;20064;-71
2021/03/12 06:12:32;;;;;;;6.05;2.30;;;6.50;99.90;;;;;;5050057;28;20029;-71
2021/03/12 06:14:59;;;;;;;5.55;2.40;;;6.50;99.90;;;;;;5055984;28;20099;-72
2021/03/12 06:17:45;;;;;;;3.33;1.90;;;6.40;99.90;;;;;;5051913;28;21471;-72
2021/03/12 06:20:15;;;;;;;4.20;1.83;;;6.50;99.90;;;;;;5051801;28;20616;-72
2021/03/12 06:22:52;;;;;;;3.30;2.08;;;6.50;99.90;;;;;;5052095;28;20044;-72
2021/03/12 06:25:23;;;;;;;4.95;2.10;;;6.50;99.90;;;;;;5049495;28;20033;-73
2021/03/12 06:27:49;;;;;;;4.93;2.03;;;6.60;99.90;;;;;;5054738;28;20036;-71
2021/03/12 06:30:18;;;;;;;4.53;2.13;;;6.60;99.90;;;;;;5056962;28;20125;-71
2021/03/12 06:32:43;;;;;;;3.42;1.80;;;6.60;99.90;;;;;;5061443;28;20117;-71
2021/03/12 06:35:14;;;;;;;5.60;2.13;;;6.50;99.90;;;;;;5048719;28;20052;-71
2021/03/12 06:37:40;;;;;;;3.25;2.08;;;6.50;99.90;;;;;;5054988;28;20037;-71
2021/03/12 06:40:19;;;;;;;5.55;2.35;;;6.50;99.90;;;;;;5051822;28;20483;-71
2021/03/12 06:43:11;;;;;;;6.15;2.80;;;6.50;99.90;;;;;;5046656;28;20037;-71
2021/03/12 06:45:42;;;;;;;6.32;2.78;;;6.30;99.90;;;;;;5062079;28;20486;-71
2021/03/12 06:48:21;;;;;;;3.95;2.33;;;6.10;99.90;;;;;;5038379;28;20109;-71
2021/03/12 06:50:50;;;;;;;6.07;2.80;;;5.80;99.90;;;;;;5065473;28;20549;-71
2021/03/12 06:53:51;;;;;;;4.03;2.83;;;5.80;99.90;;;;;;5064216;28;20039;-71
2021/03/12 06:56:28;;;;;;;4.43;3.08;;;5.80;99.90;;;;;;5046246;28;20053;-71
2021/03/12 06:59:04;;;;;;;5.28;3.30;;;5.90;99.90;;;;;;5063579;28;20032;-71
2021/03/12 07:01:29;;;;;;;6.97;3.60;;;6.00;99.90;;;;;;5059476;28;20433;-70
2021/03/12 07:04:15;;;;;;;9.43;4.07;;;6.00;99.90;;;;;;5060554;28;20025;-71
2021/03/12 07:06:44;;;;;;;7.47;3.80;;;6.10;99.90;;;;;;5063152;28;20023;-71
2021/03/12 07:09:10;;;;;;;7.53;3.40;;;6.20;99.90;;;;;;5063306;28;20071;-71
2021/03/12 07:11:36;;;;;;;5.05;3.40;;;6.30;99.90;;;;;;5064766;28;20032;-71
2021/03/12 07:14:02;;;;;;;5.68;3.35;;;6.30;99.90;;;;;;5063433;28;20459;-71
2021/03/12 07:16:28;;;;;;;5.88;3.17;;;6.40;99.90;;;;;;5064268;28;20039;-71
2021/03/12 07:18:54;;;;;;;4.95;2.97;;;6.40;99.90;;;;;;5061956;28;20036;-74
2021/03/12 07:21:25;;;;;;;5.53;3.40;;;6.40;99.90;;;;;;5067043;28;20024;-71
2021/03/12 07:23:58;;;;;;;;;;;6.50;99.90;;;;;;5064116;28;20526;-71
2021/03/12 07:26:25;;;;;;;5.53;3.20;;;6.60;99.90;;;;;;5059311;28;20418;-71
2021/03/12 07:28:56;;;;;;;7.28;2.85;;;6.70;99.90;;;;;;5058875;28;20028;-71
2021/03/12 07:31:24;;;;;;;;;;;6.70;99.90;;;;;;5064861;28;20082;-71
2021/03/12 07:33:58;;;;;;;4.00;2.70;;;6.80;99.90;;;;;;5059922;28;19919;-71
2021/03/12 07:36:24;;;;;;;5.43;3.00;;;6.70;99.90;;;;;;5063577;28;20037;-71
2021/03/12 07:38:51;;;;;;;5.63;3.35;;;6.70;99.90;;;;;;5062600;28;20027;-71
2021/03/12 07:41:16;;;;;;;7.78;3.60;;;6.80;99.90;;;;;;5061230;28;20028;-71
2021/03/12 07:43:44;;;;;;;8.23;3.70;;;6.80;99.90;;;;;;5062350;28;20027;-75
2021/03/12 07:46:12;;;;;;;6.13;3.13;;;6.90;99.90;;;;;;5060410;28;20086;-70
2021/03/12 07:48:38;;;;;;;8.02;3.55;;;6.90;99.90;;;;;;5061025;28;20041;-72
2021/03/12 07:51:14;;;;;;;9.48;3.72;;;6.90;99.90;;;;;;5061429;28;20024;-75
2021/03/12 07:53:45;;;;;;;5.82;3.53;;;7.00;99.90;;;;;;5061358;28;20029;-71
2021/03/12 07:56:12;;;;;;;8.30;3.15;;;7.00;99.90;;;;;;5056990;28;20028;-71
2021/03/12 07:58:50;;;;;;;6.65;3.33;;;7.00;99.90;;;;;;5061127;28;20060;-71
2021/03/12 08:01:16;;;;;;;7.75;3.30;;;7.00;99.90;;;;;;5061531;28;20029;-71
2021/03/12 08:03:42;;;;;;;10.32;3.45;;;7.10;99.90;;;;;;5065866;28;20503;-70
2021/03/12 08:06:17;;;;;;;7.63;3.10;;;7.10;99.90;;;;;;5067563;28;20067;-71
2021/03/12 08:08:43;;;;;;;6.50;3.20;;;7.20;99.90;;;;;;5066851;28;20074;-71
2021/03/12 08:11:21;;;;;;;7.18;3.42;;;7.30;99.90;;;;;;5067336;28;20054;-71
2021/03/12 08:13:48;;;;;;;5.85;3.33;;;7.20;99.90;;;;;;5063401;28;20048;-72
2021/03/12 08:16:14;;;;;;;4.93;2.80;;;7.30;99.90;;;;;;5063154;28;20115;-71
2021/03/12 08:18:40;;;;;;;8.23;3.20;;;7.30;99.90;;;;;;5066247;28;20155;-71
2021/03/12 08:21:31;;;;;;;8.70;3.47;;;7.40;99.90;;;;;;5061521;28;20028;-70
2021/03/12 08:24:01;;;;;;;6.43;3.05;;;7.50;99.90;;;;;;5067958;28;20567;-71
2021/03/12 08:27:02;;;;;;;7.35;2.67;;;7.50;99.90;;;;;;5065182;28;20032;-70
2021/03/12 08:29:30;;;;;;;4.20;2.42;;;7.50;99.90;;;;;;4964817;28;20039;-68
2021/03/12 08:31:57;;;;;;;11.95;2.63;;;7.50;99.90;;;;;;5045929;28;20258;-71
2021/03/12 08:34:39;;;;;;;8.15;2.65;;;7.50;99.90;;;;;;5063835;28;20491;-73
2021/03/12 08:37:26;;;;;;;6.38;2.97;;;7.50;99.90;;;;;;5066268;28;20033;-70
2021/03/12 08:40:19;;;;;;;7.10;2.80;;;7.50;99.90;;;;;;5067763;28;20674;-69
2021/03/12 08:43:12;;;;;;;4.05;2.70;;;7.60;99.90;;;;;;5067217;28;20029;-70
2021/03/12 08:45:50;;;;;;;3.55;2.67;;;7.50;99.90;;;;;;5063767;28;20024;-70
2021/03/12 08:48:20;;;;;;;5.10;2.58;;;7.60;99.90;;;;;;5055013;28;20082;-71
2021/03/12 08:51:03;;;;;;;6.05;3.15;;;7.70;99.90;;;;;;5067109;28;20021;-71
2021/03/12 08:53:37;;;;;;;6.13;3.03;;;7.70;99.90;;;;;;5064756;28;20025;-71
2021/03/12 08:56:05;;;;;;;3.53;2.40;;;7.70;99.90;;;;;;5069200;28;20112;-71
2021/03/12 08:58:32;;;;;;;4.75;2.80;;;7.80;99.90;;;;;;5066420;28;20035;-73
2021/03/12 09:01:07;;;;;;;4.40;3.00;;;7.90;99.90;;;;;;5060454;28;20064;-72
2021/03/12 09:03:34;;;;;;;6.35;2.70;;;7.90;99.90;;;;;;5063268;28;20036;-72
2021/03/12 09:06:06;;;;;;;8.00;2.80;;;8.00;99.90;;;;;;5058665;28;20090;-72
2021/03/12 09:08:33;;;;;;;4.78;2.67;;;8.00;99.90;;;;;;5063892;28;20058;-72
2021/03/12 09:11:01;;;;;;;7.22;3.03;;;8.00;99.90;;;;;;5064680;28;20025;-72
2021/03/12 09:13:29;;;;;;;7.18;3.17;;;8.00;99.90;;;;;;5065266;28;20111;-72
2021/03/12 09:15:57;;;;;;;9.02;3.08;;;7.90;99.90;;;;;;5062628;28;20020;-72
2021/03/12 09:18:24;;;;;;;6.63;3.47;;;7.80;99.90;;;;;;5065201;28;20024;-72
2021/03/12 09:20:52;;;;;;;6.18;3.90;;;7.80;99.90;;;;;;5059637;28;21909;-73
2021/03/12 09:23:32;;;;;;;6.57;3.95;;;7.70;99.90;;;;;;5053801;28;20043;-73
2021/03/12 09:25:58;;;;;;;6.63;3.45;;;7.60;99.90;;;;;;5064293;28;20461;-73
2021/03/12 09:28:31;;;;;;;6.63;3.20;;;7.60;99.90;;;;;;5058560;28;20108;-72
2021/03/12 09:30:57;;;;;;;9.57;3.35;;;7.60;99.90;;;;;;5061968;28;20119;-72
2021/03/12 09:33:36;;;;;;;7.15;2.70;;;7.60;99.90;;;;;;5063230;28;20032;-72
2021/03/12 09:36:05;;;;;;;7.10;2.97;;;7.60;99.90;;;;;;5066894;28;20021;-70
2021/03/12 09:38:36;;;;;;;5.78;3.28;;;7.50;99.90;;;;;;5061019;28;20024;-74
2021/03/12 09:41:17;;;;;;;4.75;3.15;;;7.50;99.90;;;;;;5062956;28;20145;-71
2021/03/12 09:43:44;;;;;;;5.72;3.60;;;7.60;99.90;;;;;;5058656;28;20035;-74
2021/03/12 09:46:10;;;;;;;6.88;3.70;;;7.70;99.90;;;;;;5062800;28;20024;-72
2021/03/12 09:48:36;;;;;;;8.65;3.85;;;7.80;99.90;;;;;;5060861;28;20061;-73
2021/03/12 09:51:02;;;;;;;10.40;3.65;;;8.00;99.90;;;;;;5063650;28;20032;-73
2021/03/12 09:53:29;;;;;;;11.18;4.32;;;8.20;99.90;;;;;;5066643;28;20056;-74
2021/03/12 09:55:55;;;;;;;11.43;3.35;;;8.50;99.90;;;;;;5057305;28;20033;-74
2021/03/12 09:58:21;;;;;;;7.28;3.15;;;8.70;99.90;;;;;;5063020;28;20035;-73
2021/03/12 10:00:47;;;;;;;6.40;2.42;;;8.90;99.90;;;;;;5055876;28;20071;-73
2021/03/12 10:03:12;;;;;;;7.32;2.95;;;8.80;99.90;;;;;;5052973;28;20056;-75
2021/03/12 10:05:38;;;;;;;4.90;2.63;;;8.90;99.90;;;;;;5057898;28;20115;-73
2021/03/12 10:08:05;;;;;;;7.90;2.25;;;9.10;99.90;;;;;;5059503;28;20039;-73
2021/03/12 10:10:33;;;;;;;3.55;2.30;;;8.90;99.90;;;;;;5055902;28;20414;-73
2021/03/12 10:13:04;;;;;;;8.05;3.50;;;8.90;99.90;;;;;;5058715;28;20036;-74
2021/03/12 10:15:39;;;;;;;5.75;2.10;;;8.90;99.90;;;;;;5061113;28;20090;-73
2021/03/12 10:18:05;;;;;;;7.80;2.15;;;8.90;99.90;;;;;;5058722;28;20047;-73
2021/03/12 10:20:35;;;;;;;5.63;2.10;;;8.70;99.90;;;;;;5061027;28;20016;-73
2021/03/12 10:23:03;;;;;;;9.95;2.28;;;8.70;99.90;;;;;;5061952;28;20033;-74
2021/03/12 10:25:32;;;;;;;7.03;2.95;;;8.90;99.90;;;;;;5062313;28;20469;-73
2021/03/12 10:28:06;;;;;;;9.13;2.20;;;9.10;99.90;;;;;;5060552;28;20056;-74
2021/03/12 10:30:40;;;;;;;6.47;2.35;;;9.10;99.90;;;;;;5064469;28;20028;-74
2021/03/12 10:33:18;;;;;;;7.88;2.47;;;9.10;99.90;;;;;;5065715;28;20035;-73
2021/03/12 10:35:55;;;;;;;8.95;2.35;;;9.20;98.50;;;;;;5066240;28;20028;-75
2021/03/12 10:38:23;;;;;;;4.53;2.15;;;9.20;97.50;;;;;;5062006;28;20032;-72
2021/03/12 10:40:58;;;;;;;7.68;2.08;;;9.20;95.20;;;;;;5065976;28;20105;-73
2021/03/12 10:44:14;;;;;;;8.15;2.60;;;9.30;95.20;;;;;;5058283;28;20043;-72
2021/03/12 10:46:19;;;;;;;8.68;1.70;;;9.50;93.00;;;;;;5054744;28;20090;-73
2021/03/12 10:48:46;;;;;;;6.68;1.77;;;9.60;92.90;;;;;;5063914;28;20176;-73
2021/03/12 10:51:13;;;;;;;3.50;1.55;;;9.60;91.00;;;;;;5061430;28;20376;-73
2021/03/12 10:53:55;;;;;;;4.78;1.30;;;9.60;90.30;;;;;;5063157;28;20048;-73
2021/03/12 10:56:26;;;;;;;4.50;1.88;;;9.50;88.90;;;;;;5064643;28;20029;-72
2021/03/12 10:58:53;;;;;;;6.27;1.87;;;9.60;89.20;;;;;;5060873;28;20089;-73
2021/03/12 11:01:22;;;;;;;4.22;1.42;;;9.70;89.30;;;;;;5058050;28;20628;-73
2021/03/12 11:03:48;;;;;;;5.20;2.38;;;9.70;90.00;;;;;;5061045;28;20098;-72
2021/03/12 11:06:15;;;;;;;6.75;2.25;;;9.60;89.90;;;;;;5062053;28;20082;-73
2021/03/12 11:08:41;;;;;;;6.68;1.98;;;9.50;89.30;;;;;;5063561;28;20032;-73
2021/03/12 11:11:10;;;;;;;3.95;1.58;;;9.60;88.80;;;;;;5061797;28;20037;-72
2021/03/12 11:13:38;;;;;;;6.32;2.10;;;9.60;86.40;;;;;;5065358;28;20020;-71
2021/03/12 11:16:04;;;;;;;4.65;1.55;;;9.60;86.00;;;;;;5059785;28;20427;-73
2021/03/12 11:18:31;;;;;;;5.20;2.40;;;9.50;86.80;;;;;;5060265;28;20021;-73
2021/03/12 11:20:58;;;;;;;5.68;2.28;;;9.30;86.90;;;;;;5064500;28;20025;-74
2021/03/12 11:23:24;;;;;;;4.97;2.25;;;9.30;84.80;;;;;;5061754;28;20028;-73
2021/03/12 11:25:50;;;;;;;5.22;1.60;;;9.40;85.80;;;;;;5065503;28;20040;-73
2021/03/12 11:28:15;;;;;;;3.33;1.83;;;9.60;83.10;;;;;;5060947;28;20030;-73
2021/03/12 11:30:41;;;;;;;4.85;1.75;;;10.00;82.10;;;;;;5058312;28;20025;-74
2021/03/12 11:33:06;;;;;;;7.22;2.00;;;10.10;81.10;;;;;;5059288;28;20063;-73
2021/03/12 11:35:32;;;;;;;2.53;1.50;;;10.40;80.10;;;;;;5065713;28;20028;-73
2021/03/12 11:37:58;;;;;;;4.50;1.80;;;10.50;78.70;;;;;;5063274;28;20051;-73
2021/03/12 11:40:24;;;;;;;3.28;1.65;;;10.50;75.80;;;;;;5067545;28;20133;-73
2021/03/12 11:42:53;;;;;;;8.88;1.85;;;10.40;76.20;;;;;;5061714;28;20546;-73
2021/03/12 11:45:19;;;;;;;7.03;1.88;;;10.20;76.00;;;;;;5062883;28;20035;-73
2021/03/12 11:47:46;;;;;;;5.15;1.90;;;10.00;74.60;;;;;;5046138;28;20607;-73
2021/03/12 11:50:16;;;;;;;3.92;1.80;;;9.90;75.10;;;;;;5059664;28;20029;-75
2021/03/12 11:52:42;;;;;;;3.95;1.70;;;9.70;75.50;;;;;;5068763;28;20028;-72
2021/03/12 11:55:08;;;;;;;8.55;1.88;;;9.70;76.30;;;;;;5065328;28;20802;-74
2021/03/12 11:57:36;;;;;;;5.72;1.80;;;9.80;77.10;;;;;;5063911;28;20021;-73
2021/03/12 12:00:06;;;;;;;5.38;2.10;;;9.70;76.60;;;;;;5057812;28;20661;-72
2021/03/12 12:02:31;;;;;;;3.15;1.85;;;9.80;74.90;;;;;;5065274;28;20033;-73
2021/03/12 12:05:03;;;;;;;4.38;1.70;;;9.90;74.70;;;;;;5064330;28;20047;-72
2021/03/12 12:07:29;;;;;;;5.07;2.20;;;10.30;74.10;;;;;;5060172;28;20047;-72
2021/03/12 12:09:55;;;;;;;4.80;2.10;;;10.40;73.20;;;;;;5062410;28;21151;-73
2021/03/12 12:12:21;;;;;;;5.78;2.30;;;10.50;73.90;;;;;;5053395;28;20028;-71
2021/03/12 12:14:47;;;;;;;2.50;2.13;;;10.50;71.80;;;;;;5056077;28;20029;-73
2021/03/12 12:17:13;;;;;;;5.18;2.35;;;10.40;72.80;;;;;;5063207;28;20553;-73
2021/03/12 12:19:40;;;;;;;8.02;2.92;;;10.30;73.30;;;;;;5059639;28;20024;-72
2021/03/12 12:22:07;;;;;;;5.15;2.60;;;10.20;73.10;;;;;;5066627;28;20028;-72
2021/03/12 12:24:33;;;;;;;4.97;2.72;;;10.30;74.70;;;;;;5064392;28;20104;-74
2021/03/12 12:26:59;;;;;;;5.10;2.85;;;10.40;74.40;;;;;;5062066;28;20479;-72
2021/03/12 12:29:24;;;;;;;4.85;3.13;;;10.40;73.90;;;;;;5063179;28;20026;-72
2021/03/12 12:31:50;;;;;;;7.68;2.88;;;10.40;73.90;;;;;;5061249;28;20028;-74
2021/03/12 12:34:15;;;;;;;5.80;2.90;;;10.60;73.80;;;;;;5064822;28;20475;-72
2021/03/12 12:36:41;;;;;;;7.60;3.08;;;10.50;71.20;;;;;;5065878;28;20121;-74
2021/03/12 12:39:08;;;;;;;10.57;2.90;;;10.70;72.00;;;;;;5065793;28;20025;-73
2021/03/12 12:41:37;;;;;;;6.22;2.85;;;10.80;71.20;;;;;;5062745;28;20043;-74
2021/03/12 12:44:03;;;;;;;4.38;2.38;;;10.80;71.30;;;;;;5061071;28;20109;-73
2021/03/12 12:46:28;;;;;;;6.32;2.60;;;10.70;70.10;;;;;;5064170;28;20071;-71
2021/03/12 12:48:54;;;;;;;7.50;2.60;;;10.60;69.00;;;;;;5061799;28;20040;-74
2021/03/12 12:51:20;;;;;;;4.38;2.28;;;10.50;69.90;;;;;;5060794;28;20108;-74
2021/03/12 12:53:45;;;;;;;6.95;2.50;;;10.50;70.30;;;;;;5066520;28;20025;-77
2021/03/12 12:56:11;;;;;;;5.00;2.20;;;10.60;71.50;;;;;;5065225;28;20093;-74
2021/03/12 12:58:37;;;;;;;4.35;2.40;;;10.60;70.60;;;;;;5064802;28;20028;-71
2021/03/12 13:01:02;;;;;;;4.13;2.00;;;10.60;70.20;;;;;;5056183;28;20029;-73
2021/03/12 13:03:28;;;;;;;4.13;2.25;;;10.70;69.00;;;;;;5057385;28;20556;-75